Penobscot, ME (04476)

10:06 PM EDT on June 02, 2015 (GMT -0400)
RainWise MKIII by Pierces Pond | | Change Station
CLOSE
Current Station
Personal Weather Station
Location: Penobscot, ME
Elevation: 89 ft
Nearby Weather Stations

Elev 89 ft 44.48 °N, 68.72 °W | Updated 3 seconds ago

Overcast
Overcast
46.7 °F
Feels Like 44 °F
N
6.0
Wind Variable Wind from NNE
Gusts 11.0 mph

Today
High -- | Low -- °F
--% Chance of Precip.
Yesterday
High -- | Low -- °F
Precip. -- in
4:52 AM 8:13 PM
Full, 100% visible
Pressure 30.18 in
Visibility 6.0 miles
Clouds Overcast 500 ft
Windchill 44 °F
Dew Point 47 °F
Humidity 100%
Rainfall 0.54 in
Snow Depth Not available.
UV 0 out of 12
Pollen .90 out of 12
Air Quality Not available.
Flu Activity Regional
METAR KBHB 030155Z AUTO 36004KT 6SM OVC005 08/08 A3018 RMK AO1 P0001

More Conditions Fewer Conditions

Pressure 30.18 in
Visibility 6.0 miles
Clouds Overcast 500 ft
Windchill 44 °F
Dew Point 47 °F
Humidity 100%
Rainfall 0.54 in
Snow Depth Not available.
UV 0 out of 12
Pollen .90 out of 12
Air Quality Not available.
Flu Activity Regional
METAR KBHB 030155Z AUTO 36004KT 6SM OVC005 08/08 A3018 RMK AO1 P0001

More Conditions Fewer Conditions

10-Day Weather Forecast

×

Almanac

Astronomy

Jun. 02, 2015 Rise Set
Actual Time
Civil Twilight
Nautical Twilight
Astronomical Twilight
Moon
Length of Visible Light
Length of Day
Tomorrow will be .
, % of the Moon is Illuminated

Today's Extremes

State Highs State Lows

Community

WunderPhotos

Upload Photos

1,826,103 photos uploaded!

WunderBlogs® & News

Nearby

Air Quality

  Air Quality AQ Index Pollutant
Not available.

Snow Depth

Station Depth Elevation

Earthquake Activity

City Distance Mag. Time & Date
Minimum magnitude displayed is 2.5.

Coastal Water Temperatures

Place Temperature

Stations

Nearby Weather Stations

Station Location Temp. Windchill Dew Point Humidity Wind Precip. Elev Updated Type